Aviation Digital Data Service (ADDS)

Output produced by METARs form (1548 UTC 24 March 2017)
found at http://aviationweather.gov/adds/metars/
 
KPWM 241458Z 2415/2512 19012G20KT P6SM BKN050 OVC100 
     FM241700 20009G16KT 2SM -SN BKN025 OVC050 
     TEMPO 2419/2423 1SM -SN BR BKN015 OVC025 
     FM242300 22006KT P6SM -SHRA BKN007 OVC015 
     FM250600 33004KT P6SM BKN025 OVC050